sensor_id;sensor_type;location;lat;lon;timestamp;pressure;altitude;pressure_sealevel;temperature;humidity
4392;BME280;2210;51.938;8.488;2023-03-19T00:03:37;100138.22;;;9.85;100.00
4392;BME280;2210;51.938;8.488;2023-03-19T00:07:38;100141.22;;;9.84;100.00
4392;BME280;2210;51.938;8.488;2023-03-19T00:11:41;100136.53;;;9.72;100.00
4392;BME280;2210;51.938;8.488;2023-03-19T00:15:41;100139.66;;;9.76;100.00
4392;BME280;2210;51.938;8.488;2023-03-19T00:19:42;100139.66;;;9.76;100.00
4392;BME280;2210;51.938;8.488;2023-03-19T00:23:52;100134.91;;;9.48;100.00
4392;BME280;2210;51.938;8.488;2023-03-19T00:28:13;100139.06;;;9.38;100.00
4392;BME280;2210;51.938;8.488;2023-03-19T00:32:13;100140.19;;;9.37;100.00
4392;BME280;2210;51.938;8.488;2023-03-19T00:36:26;100140.75;;;9.16;100.00
4392;BME280;2210;51.938;8.488;2023-03-19T00:40:30;100138.09;;;9.21;100.00
4392;BME280;2210;51.938;8.488;2023-03-19T00:44:31;100142.31;;;9.23;100.00
4392;BME280;2210;51.938;8.488;2023-03-19T00:48:31;100143.84;;;9.07;100.00
4392;BME280;2210;51.938;8.488;2023-03-19T00:52:32;100134.50;;;8.97;100.00
4392;BME280;2210;51.938;8.488;2023-03-19T00:56:32;100142.38;;;8.93;100.00
4392;BME280;2210;51.938;8.488;2023-03-19T01:00:44;100145.00;;;8.88;100.00
4392;BME280;2210;51.938;8.488;2023-03-19T01:04:47;100140.56;;;8.75;100.00
4392;BME280;2210;51.938;8.488;2023-03-19T01:08:51;100143.63;;;8.67;100.00
4392;BME280;2210;51.938;8.488;2023-03-19T01:12:54;100155.31;;;8.62;100.00
4392;BME280;2210;51.938;8.488;2023-03-19T01:16:54;100150.03;;;8.49;100.00
4392;BME280;2210;51.938;8.488;2023-03-19T01:20:54;100152.28;;;8.52;100.00
4392;BME280;2210;51.938;8.488;2023-03-19T01:24:55;100146.22;;;8.31;100.00
4392;BME280;2210;51.938;8.488;2023-03-19T01:28:56;100153.84;;;8.29;100.00
4392;BME280;2210;51.938;8.488;2023-03-19T01:32:59;100150.50;;;8.27;100.00
4392;BME280;2210;51.938;8.488;2023-03-19T01:37:09;100141.06;;;8.04;100.00
4392;BME280;2210;51.938;8.488;2023-03-19T01:41:13;100143.44;;;8.19;100.00
4392;BME280;2210;51.938;8.488;2023-03-19T01:45:29;100144.84;;;8.22;100.00
4392;BME280;2210;51.938;8.488;2023-03-19T01:49:30;100141.34;;;8.15;100.00
4392;BME280;2210;51.938;8.488;2023-03-19T01:53:35;100142.31;;;8.39;100.00
4392;BME280;2210;51.938;8.488;2023-03-19T01:57:36;100150.78;;;8.37;100.00
4392;BME280;2210;51.938;8.488;2023-03-19T02:01:50;100142.16;;;8.34;100.00
4392;BME280;2210;51.938;8.488;2023-03-19T02:05:54;100144.44;;;8.37;100.00
4392;BME280;2210;51.938;8.488;2023-03-19T02:09:55;100140.53;;;8.44;100.00
4392;BME280;2210;51.938;8.488;2023-03-19T02:13:56;100140.84;;;8.55;100.00
4392;BME280;2210;51.938;8.488;2023-03-19T02:17:59;100138.25;;;8.60;100.00
4392;BME280;2210;51.938;8.488;2023-03-19T02:22:01;100146.69;;;8.58;100.00
4392;BME280;2210;51.938;8.488;2023-03-19T02:26:08;100138.50;;;8.70;100.00
4392;BME280;2210;51.938;8.488;2023-03-19T02:30:38;100132.63;;;8.55;100.00
4392;BME280;2210;51.938;8.488;2023-03-19T02:34:44;100136.47;;;8.66;100.00
4392;BME280;2210;51.938;8.488;2023-03-19T02:38:45;100140.88;;;8.67;100.00
4392;BME280;2210;51.938;8.488;2023-03-19T02:42:49;100142.97;;;8.53;100.00
4392;BME280;2210;51.938;8.488;2023-03-19T02:46:56;100149.94;;;8.55;100.00
4392;BME280;2210;51.938;8.488;2023-03-19T02:50:57;100158.34;;;8.72;100.00
4392;BME280;2210;51.938;8.488;2023-03-19T02:55:00;100150.66;;;8.63;100.00
4392;BME280;2210;51.938;8.488;2023-03-19T02:59:00;100138.97;;;8.67;100.00
4392;BME280;2210;51.938;8.488;2023-03-19T03:03:04;100134.97;;;8.51;100.00
4392;BME280;2210;51.938;8.488;2023-03-19T03:07:08;100139.41;;;8.52;100.00
4392;BME280;2210;51.938;8.488;2023-03-19T03:11:18;100142.31;;;8.69;100.00
4392;BME280;2210;51.938;8.488;2023-03-19T03:15:19;100144.72;;;8.77;100.00
4392;BME280;2210;51.938;8.488;2023-03-19T03:19:20;100138.53;;;8.82;100.00
4392;BME280;2210;51.938;8.488;2023-03-19T03:23:20;100146.50;;;8.72;100.00
4392;BME280;2210;51.938;8.488;2023-03-19T03:27:26;100147.38;;;8.72;100.00
4392;BME280;2210;51.938;8.488;2023-03-19T03:31:27;100145.81;;;8.76;100.00
4392;BME280;2210;51.938;8.488;2023-03-19T03:35:28;100143.63;;;8.67;100.00
4392;BME280;2210;51.938;8.488;2023-03-19T03:39:29;100137.78;;;8.63;100.00
4392;BME280;2210;51.938;8.488;2023-03-19T03:43:29;100150.56;;;8.69;100.00
4392;BME280;2210;51.938;8.488;2023-03-19T03:47:36;100147.81;;;8.69;100.00
4392;BME280;2210;51.938;8.488;2023-03-19T03:51:51;100146.25;;;8.62;100.00
4392;BME280;2210;51.938;8.488;2023-03-19T03:55:54;100148.28;;;8.66;100.00
4392;BME280;2210;51.938;8.488;2023-03-19T04:00:02;100150.16;;;8.54;100.00
4392;BME280;2210;51.938;8.488;2023-03-19T04:04:02;100154.22;;;8.51;100.00
4392;BME280;2210;51.938;8.488;2023-03-19T04:08:09;100150.75;;;8.56;100.00
4392;BME280;2210;51.938;8.488;2023-03-19T04:12:15;100149.44;;;8.47;100.00
4392;BME280;2210;51.938;8.488;2023-03-19T04:16:16;100149.09;;;8.36;100.00
4392;BME280;2210;51.938;8.488;2023-03-19T04:20:16;100145.16;;;8.32;100.00
4392;BME280;2210;51.938;8.488;2023-03-19T04:24:17;100144.63;;;8.23;100.00
4392;BME280;2210;51.938;8.488;2023-03-19T04:28:28;100145.22;;;8.25;100.00
4392;BME280;2210;51.938;8.488;2023-03-19T04:32:28;100140.53;;;8.14;100.00
4392;BME280;2210;51.938;8.488;2023-03-19T04:36:28;100136.84;;;8.20;100.00
4392;BME280;2210;51.938;8.488;2023-03-19T04:40:31;100144.84;;;8.22;100.00
4392;BME280;2210;51.938;8.488;2023-03-19T04:44:35;100147.25;;;8.18;100.00
4392;BME280;2210;51.938;8.488;2023-03-19T04:48:36;100142.19;;;8.15;100.00
4392;BME280;2210;51.938;8.488;2023-03-19T04:52:41;100145.25;;;8.07;100.00
4392;BME280;2210;51.938;8.488;2023-03-19T04:56:41;100140.78;;;7.94;100.00
4392;BME280;2210;51.938;8.488;2023-03-19T05:00:45;100158.22;;;8.00;100.00
4392;BME280;2210;51.938;8.488;2023-03-19T05:04:49;100158.94;;;7.95;100.00
4392;BME280;2210;51.938;8.488;2023-03-19T05:08:49;100154.97;;;7.91;100.00
4392;BME280;2210;51.938;8.488;2023-03-19T05:12:53;100151.22;;;7.85;100.00
4392;BME280;2210;51.938;8.488;2023-03-19T05:17:03;100159.97;;;7.75;100.00
4392;BME280;2210;51.938;8.488;2023-03-19T05:21:09;100163.34;;;7.78;100.00
4392;BME280;2210;51.938;8.488;2023-03-19T05:25:16;100172.09;;;7.86;100.00
4392;BME280;2210;51.938;8.488;2023-03-19T05:29:19;100165.16;;;7.65;100.00
4392;BME280;2210;51.938;8.488;2023-03-19T05:33:19;100167.06;;;7.65;100.00
4392;BME280;2210;51.938;8.488;2023-03-19T05:37:21;100166.81;;;7.66;100.00
4392;BME280;2210;51.938;8.488;2023-03-19T05:41:21;100173.25;;;7.60;100.00
4392;BME280;2210;51.938;8.488;2023-03-19T05:45:21;100175.81;;;7.55;100.00
4392;BME280;2210;51.938;8.488;2023-03-19T05:49:22;100182.97;;;7.56;100.00
4392;BME280;2210;51.938;8.488;2023-03-19T05:53:22;100182.00;;;7.50;100.00
4392;BME280;2210;51.938;8.488;2023-03-19T05:57:23;100200.34;;;7.50;100.00
4392;BME280;2210;51.938;8.488;2023-03-19T06:01:23;100200.16;;;7.45;100.00
4392;BME280;2210;51.938;8.488;2023-03-19T06:05:29;100200.63;;;7.41;100.00
4392;BME280;2210;51.938;8.488;2023-03-19T06:18:41;100210.53;;;7.42;100.00
4392;BME280;2210;51.938;8.488;2023-03-19T06:22:43;100210.47;;;7.49;100.00
4392;BME280;2210;51.938;8.488;2023-03-19T06:26:43;100211.19;;;7.63;100.00
4392;BME280;2210;51.938;8.488;2023-03-19T06:30:46;100216.38;;;7.71;100.00
4392;BME280;2210;51.938;8.488;2023-03-19T06:34:46;100210.06;;;7.89;100.00
4392;BME280;2210;51.938;8.488;2023-03-19T06:38:47;100209.09;;;8.02;100.00
4392;BME280;2210;51.938;8.488;2023-03-19T06:42:47;100213.06;;;8.06;100.00
4392;BME280;2210;51.938;8.488;2023-03-19T06:46:51;100217.34;;;8.21;100.00
4392;BME280;2210;51.938;8.488;2023-03-19T06:50:57;100226.19;;;8.23;100.00
4392;BME280;2210;51.938;8.488;2023-03-19T06:54:57;100222.91;;;8.51;100.00
4392;BME280;2210;51.938;8.488;2023-03-19T06:58:58;100231.38;;;8.80;100.00
4392;BME280;2210;51.938;8.488;2023-03-19T07:02:58;100229.06;;;8.96;100.00
4392;BME280;2210;51.938;8.488;2023-03-19T07:06:59;100238.09;;;9.15;100.00
4392;BME280;2210;51.938;8.488;2023-03-19T07:11:08;100245.19;;;9.34;100.00
4392;BME280;2210;51.938;8.488;2023-03-19T07:15:09;100245.56;;;9.61;100.00
4392;BME280;2210;51.938;8.488;2023-03-19T07:19:12;100245.09;;;9.76;100.00
4392;BME280;2210;51.938;8.488;2023-03-19T07:23:12;100250.38;;;9.90;100.00
4392;BME280;2210;51.938;8.488;2023-03-19T07:27:19;100255.88;;;10.02;100.00
4392;BME280;2210;51.938;8.488;2023-03-19T07:31:19;100253.69;;;10.16;100.00
4392;BME280;2210;51.938;8.488;2023-03-19T07:35:20;100253.97;;;10.38;100.00
4392;BME280;2210;51.938;8.488;2023-03-19T07:39:27;100267.66;;;10.61;100.00
4392;BME280;2210;51.938;8.488;2023-03-19T07:43:37;100256.22;;;10.82;100.00
4392;BME280;2210;51.938;8.488;2023-03-19T07:47:37;100260.66;;;11.11;100.00
4392;BME280;2210;51.938;8.488;2023-03-19T07:51:54;100273.00;;;11.09;100.00
4392;BME280;2210;51.938;8.488;2023-03-19T07:55:57;100275.81;;;10.97;100.00
4392;BME280;2210;51.938;8.488;2023-03-19T07:59:57;100281.00;;;10.93;100.00
4392;BME280;2210;51.938;8.488;2023-03-19T08:04:10;100282.03;;;11.04;100.00
4392;BME280;2210;51.938;8.488;2023-03-19T08:08:10;100282.13;;;11.72;100.00
4392;BME280;2210;51.938;8.488;2023-03-19T08:12:14;100278.84;;;12.09;100.00
4392;BME280;2210;51.938;8.488;2023-03-19T08:16:14;100280.97;;;12.02;100.00
4392;BME280;2210;51.938;8.488;2023-03-19T08:20:15;100286.16;;;11.81;100.00
4392;BME280;2210;51.938;8.488;2023-03-19T08:24:16;100294.00;;;11.90;100.00
4392;BME280;2210;51.938;8.488;2023-03-19T08:28:18;100299.94;;;11.81;100.00
4392;BME280;2210;51.938;8.488;2023-03-19T08:32:19;100289.25;;;12.02;100.00
4392;BME280;2210;51.938;8.488;2023-03-19T08:36:19;100290.28;;;12.35;100.00
4392;BME280;2210;51.938;8.488;2023-03-19T08:40:23;100300.63;;;12.45;100.00
4392;BME280;2210;51.938;8.488;2023-03-19T08:44:23;100304.97;;;12.58;100.00
4392;BME280;2210;51.938;8.488;2023-03-19T08:48:24;100293.22;;;12.51;100.00
4392;BME280;2210;51.938;8.488;2023-03-19T08:52:24;100293.91;;;12.58;100.00
4392;BME280;2210;51.938;8.488;2023-03-19T08:56:25;100287.63;;;12.90;100.00
4392;BME280;2210;51.938;8.488;2023-03-19T09:00:41;100292.78;;;13.30;96.41
4392;BME280;2210;51.938;8.488;2023-03-19T09:04:44;100287.06;;;13.37;96.33
4392;BME280;2210;51.938;8.488;2023-03-19T09:08:45;100295.25;;;13.27;95.20
4392;BME280;2210;51.938;8.488;2023-03-19T09:12:51;100295.00;;;13.28;96.46
4392;BME280;2210;51.938;8.488;2023-03-19T09:16:52;100303.41;;;13.39;97.75
4392;BME280;2210;51.938;8.488;2023-03-19T09:20:55;100306.63;;;13.58;95.77
4392;BME280;2210;51.938;8.488;2023-03-19T09:24:56;100318.53;;;13.86;92.89
4392;BME280;2210;51.938;8.488;2023-03-19T09:28:56;100308.22;;;14.13;89.75
4392;BME280;2210;51.938;8.488;2023-03-19T09:32:57;100315.00;;;13.63;89.77
4392;BME280;2210;51.938;8.488;2023-03-19T09:36:58;100322.56;;;13.40;93.62
4392;BME280;2210;51.938;8.488;2023-03-19T09:41:09;100322.06;;;13.21;94.50
4392;BME280;2210;51.938;8.488;2023-03-19T09:45:14;100318.91;;;13.12;95.18
4392;BME280;2210;51.938;8.488;2023-03-19T09:49:24;100326.72;;;13.21;94.53
4392;BME280;2210;51.938;8.488;2023-03-19T09:53:38;100322.41;;;13.30;97.05
4392;BME280;2210;51.938;8.488;2023-03-19T09:57:40;100326.84;;;13.31;95.87
4392;BME280;2210;51.938;8.488;2023-03-19T10:01:44;100334.00;;;13.27;95.98
4392;BME280;2210;51.938;8.488;2023-03-19T10:10:46;100318.97;;;13.72;94.14
4392;BME280;2210;51.938;8.488;2023-03-19T10:15:05;100321.50;;;14.11;91.70
4392;BME280;2210;51.938;8.488;2023-03-19T10:19:12;100321.03;;;14.25;90.94
4392;BME280;2210;51.938;8.488;2023-03-19T10:23:28;100315.81;;;14.28;89.00
4392;BME280;2210;51.938;8.488;2023-03-19T10:27:33;100330.63;;;14.07;90.03
4392;BME280;2210;51.938;8.488;2023-03-19T10:36:11;100321.19;;;13.70;90.65
4392;BME280;2210;51.938;8.488;2023-03-19T10:40:28;100326.34;;;13.61;93.67
4392;BME280;2210;51.938;8.488;2023-03-19T10:44:44;100334.97;;;13.65;94.26
4392;BME280;2210;51.938;8.488;2023-03-19T10:48:47;100335.81;;;13.65;94.58
4392;BME280;2210;51.938;8.488;2023-03-19T10:52:57;100339.88;;;13.85;95.00
4392;BME280;2210;51.938;8.488;2023-03-19T10:57:00;100348.63;;;14.09;96.68
4392;BME280;2210;51.938;8.488;2023-03-19T11:01:09;100346.56;;;13.89;94.53
4392;BME280;2210;51.938;8.488;2023-03-19T11:09:16;100350.59;;;13.76;97.50
4392;BME280;2210;51.938;8.488;2023-03-19T11:13:25;100351.38;;;13.72;97.27
4392;BME280;2210;51.938;8.488;2023-03-19T11:17:42;100358.34;;;13.74;94.51
4392;BME280;2210;51.938;8.488;2023-03-19T11:22:14;100353.34;;;13.76;93.70
4392;BME280;2210;51.938;8.488;2023-03-19T11:26:18;100357.84;;;13.82;94.03
4392;BME280;2210;51.938;8.488;2023-03-19T11:30:19;100356.56;;;13.95;94.53
4392;BME280;2210;51.938;8.488;2023-03-19T11:34:38;100359.38;;;14.00;94.12
4392;BME280;2210;51.938;8.488;2023-03-19T11:43:23;100363.97;;;13.85;94.48
4392;BME280;2210;51.938;8.488;2023-03-19T11:47:43;100355.13;;;13.88;96.75
4392;BME280;2210;51.938;8.488;2023-03-19T11:51:51;100360.75;;;13.98;95.18
4392;BME280;2210;51.938;8.488;2023-03-19T12:00:19;100354.84;;;14.22;92.35
4392;BME280;2210;51.938;8.488;2023-03-19T12:09:21;100359.28;;;13.90;94.84
4392;BME280;2210;51.938;8.488;2023-03-19T12:26:01;100361.69;;;13.27;100.00
4392;BME280;2210;51.938;8.488;2023-03-19T12:34:27;100361.41;;;13.01;100.00
4392;BME280;2210;51.938;8.488;2023-03-19T12:38:40;100358.63;;;13.01;100.00
4392;BME280;2210;51.938;8.488;2023-03-19T12:42:44;100355.78;;;12.96;100.00
4392;BME280;2210;51.938;8.488;2023-03-19T12:47:17;100350.59;;;12.99;100.00
4392;BME280;2210;51.938;8.488;2023-03-19T12:51:26;100355.59;;;13.03;100.00
4392;BME280;2210;51.938;8.488;2023-03-19T12:56:08;100350.97;;;13.08;100.00
4392;BME280;2210;51.938;8.488;2023-03-19T13:00:31;100344.75;;;13.23;100.00
4392;BME280;2210;51.938;8.488;2023-03-19T13:04:39;100353.44;;;13.32;100.00
4392;BME280;2210;51.938;8.488;2023-03-19T13:08:59;100339.94;;;13.13;100.00
4392;BME280;2210;51.938;8.488;2023-03-19T13:21:31;100338.44;;;13.50;100.00
4392;BME280;2210;51.938;8.488;2023-03-19T13:25:37;100333.88;;;13.66;100.00
4392;BME280;2210;51.938;8.488;2023-03-19T13:34:24;100327.44;;;13.60;100.00
4392;BME280;2210;51.938;8.488;2023-03-19T13:38:40;100328.28;;;13.61;100.00
4392;BME280;2210;51.938;8.488;2023-03-19T13:42:43;100322.81;;;13.66;100.00
4392;BME280;2210;51.938;8.488;2023-03-19T13:46:44;100321.59;;;13.57;100.00
4392;BME280;2210;51.938;8.488;2023-03-19T13:51:21;100318.31;;;13.60;100.00
4392;BME280;2210;51.938;8.488;2023-03-19T14:05:07;100314.72;;;13.64;100.00
4392;BME280;2210;51.938;8.488;2023-03-19T14:13:47;100311.56;;;13.51;100.00
4392;BME280;2210;51.938;8.488;2023-03-19T14:18:11;100317.03;;;13.45;100.00
4392;BME280;2210;51.938;8.488;2023-03-19T14:22:36;100314.81;;;13.42;100.00
4392;BME280;2210;51.938;8.488;2023-03-19T14:26:42;100305.16;;;13.45;100.00
4392;BME280;2210;51.938;8.488;2023-03-19T14:30:49;100308.25;;;13.54;100.00
4392;BME280;2210;51.938;8.488;2023-03-19T14:34:49;100313.13;;;13.41;100.00
4392;BME280;2210;51.938;8.488;2023-03-19T14:38:53;100312.75;;;13.32;100.00
4392;BME280;2210;51.938;8.488;2023-03-19T14:48:04;100333.72;;;13.01;100.00
4392;BME280;2210;51.938;8.488;2023-03-19T14:52:25;100346.13;;;12.76;100.00
4392;BME280;2210;51.938;8.488;2023-03-19T14:56:34;100360.72;;;12.50;100.00
4392;BME280;2210;51.938;8.488;2023-03-19T15:00:41;100355.03;;;12.39;100.00
4392;BME280;2210;51.938;8.488;2023-03-19T15:04:44;100351.88;;;12.30;100.00
4392;BME280;2210;51.938;8.488;2023-03-19T15:08:48;100365.53;;;12.03;100.00
4392;BME280;2210;51.938;8.488;2023-03-19T15:17:00;100368.22;;;11.98;100.00
4392;BME280;2210;51.938;8.488;2023-03-19T15:21:12;100361.13;;;11.90;100.00
4392;BME280;2210;51.938;8.488;2023-03-19T15:25:19;100356.81;;;11.94;100.00
4392;BME280;2210;51.938;8.488;2023-03-19T15:29:30;100362.31;;;11.77;100.00
4392;BME280;2210;51.938;8.488;2023-03-19T15:33:34;100364.41;;;11.87;100.00
4392;BME280;2210;51.938;8.488;2023-03-19T15:37:42;100360.31;;;11.90;100.00
4392;BME280;2210;51.938;8.488;2023-03-19T15:41:47;100363.00;;;12.02;100.00
4392;BME280;2210;51.938;8.488;2023-03-19T15:45:55;100362.34;;;12.11;100.00
4392;BME280;2210;51.938;8.488;2023-03-19T15:50:09;100368.53;;;12.19;100.00
4392;BME280;2210;51.938;8.488;2023-03-19T15:54:11;100369.38;;;12.19;100.00
4392;BME280;2210;51.938;8.488;2023-03-19T15:58:15;100373.97;;;12.13;100.00
4392;BME280;2210;51.938;8.488;2023-03-19T16:02:38;100369.53;;;12.12;100.00
4392;BME280;2210;51.938;8.488;2023-03-19T16:06:39;100376.06;;;12.23;100.00
4392;BME280;2210;51.938;8.488;2023-03-19T16:10:40;100377.75;;;12.07;100.00
4392;BME280;2210;51.938;8.488;2023-03-19T16:14:44;100385.88;;;12.14;100.00
4392;BME280;2210;51.938;8.488;2023-03-19T16:18:58;100389.56;;;12.03;100.00
4392;BME280;2210;51.938;8.488;2023-03-19T16:23:01;100393.84;;;12.10;100.00
4392;BME280;2210;51.938;8.488;2023-03-19T16:27:24;100399.53;;;12.04;100.00
4392;BME280;2210;51.938;8.488;2023-03-19T16:31:30;100402.22;;;12.16;100.00
4392;BME280;2210;51.938;8.488;2023-03-19T16:35:36;100408.72;;;12.09;100.00
4392;BME280;2210;51.938;8.488;2023-03-19T16:39:52;100420.59;;;12.10;100.00
4392;BME280;2210;51.938;8.488;2023-03-19T16:44:11;100426.34;;;12.03;100.00
4392;BME280;2210;51.938;8.488;2023-03-19T16:48:12;100423.16;;;12.11;100.00
4392;BME280;2210;51.938;8.488;2023-03-19T16:52:23;100423.63;;;12.08;100.00
4392;BME280;2210;51.938;8.488;2023-03-19T16:56:23;100432.00;;;12.13;100.00
4392;BME280;2210;51.938;8.488;2023-03-19T17:00:25;100434.38;;;12.22;100.00
4392;BME280;2210;51.938;8.488;2023-03-19T17:04:38;100435.88;;;12.29;100.00
4392;BME280;2210;51.938;8.488;2023-03-19T17:08:39;100425.13;;;11.99;100.00
4392;BME280;2210;51.938;8.488;2023-03-19T17:12:40;100427.31;;;11.97;100.00
4392;BME280;2210;51.938;8.488;2023-03-19T17:16:40;100433.66;;;11.97;100.00
4392;BME280;2210;51.938;8.488;2023-03-19T17:20:51;100442.22;;;11.96;100.00
4392;BME280;2210;51.938;8.488;2023-03-19T17:24:56;100441.75;;;11.87;100.00
4392;BME280;2210;51.938;8.488;2023-03-19T17:29:02;100438.66;;;11.84;100.00
4392;BME280;2210;51.938;8.488;2023-03-19T17:33:03;100443.25;;;11.78;100.00
4392;BME280;2210;51.938;8.488;2023-03-19T17:37:15;100445.19;;;11.77;100.00
4392;BME280;2210;51.938;8.488;2023-03-19T17:41:18;100447.34;;;11.75;100.00
4392;BME280;2210;51.938;8.488;2023-03-19T17:45:24;100458.63;;;11.74;100.00
4392;BME280;2210;51.938;8.488;2023-03-19T17:49:29;100453.28;;;11.55;100.00
4392;BME280;2210;51.938;8.488;2023-03-19T17:53:48;100462.44;;;11.56;100.00
4392;BME280;2210;51.938;8.488;2023-03-19T17:57:49;100467.59;;;11.52;100.00
4392;BME280;2210;51.938;8.488;2023-03-19T18:01:53;100466.28;;;11.55;100.00
4392;BME280;2210;51.938;8.488;2023-03-19T18:05:53;100474.84;;;11.70;100.00
4392;BME280;2210;51.938;8.488;2023-03-19T18:09:54;100475.09;;;11.69;100.00
4392;BME280;2210;51.938;8.488;2023-03-19T19:48:30;100590.31;;;11.21;100.00
4392;BME280;2210;51.938;8.488;2023-03-19T19:52:30;100600.03;;;11.23;100.00
4392;BME280;2210;51.938;8.488;2023-03-19T19:56:31;100593.31;;;11.19;100.00
4392;BME280;2210;51.938;8.488;2023-03-19T20:00:31;100600.28;;;11.22;100.00
4392;BME280;2210;51.938;8.488;2023-03-19T20:04:32;100600.25;;;11.10;100.00
4392;BME280;2210;51.938;8.488;2023-03-19T20:08:32;100605.78;;;11.10;100.00
4392;BME280;2210;51.938;8.488;2023-03-19T20:12:32;100605.41;;;11.06;100.00
4392;BME280;2210;51.938;8.488;2023-03-19T20:16:32;100612.88;;;11.06;100.00
4392;BME280;2210;51.938;8.488;2023-03-19T20:20:33;100612.03;;;11.17;100.00
4392;BME280;2210;51.938;8.488;2023-03-19T20:24:33;100609.34;;;10.99;100.00
4392;BME280;2210;51.938;8.488;2023-03-19T20:28:34;100613.56;;;11.01;100.00
4392;BME280;2210;51.938;8.488;2023-03-19T20:32:37;100616.09;;;11.14;100.00
4392;BME280;2210;51.938;8.488;2023-03-19T20:36:37;100621.50;;;11.33;100.00
4392;BME280;2210;51.938;8.488;2023-03-19T20:40:45;100633.59;;;11.20;100.00
4392;BME280;2210;51.938;8.488;2023-03-19T20:44:47;100624.84;;;11.11;100.00
4392;BME280;2210;51.938;8.488;2023-03-19T20:48:47;100636.50;;;11.02;100.00
4392;BME280;2210;51.938;8.488;2023-03-19T20:52:48;100628.47;;;11.00;100.00
4392;BME280;2210;51.938;8.488;2023-03-19T20:56:49;100631.31;;;11.05;100.00
4392;BME280;2210;51.938;8.488;2023-03-19T21:00:52;100632.78;;;10.96;100.00
4392;BME280;2210;51.938;8.488;2023-03-19T21:04:52;100629.78;;;10.98;100.00
4392;BME280;2210;51.938;8.488;2023-03-19T21:08:54;100642.13;;;10.95;100.00
4392;BME280;2210;51.938;8.488;2023-03-19T21:12:59;100649.19;;;10.91;100.00
4392;BME280;2210;51.938;8.488;2023-03-19T21:16:59;100645.09;;;10.82;100.00
4392;BME280;2210;51.938;8.488;2023-03-19T21:21:00;100647.22;;;10.79;100.00
4392;BME280;2210;51.938;8.488;2023-03-19T21:25:03;100641.59;;;10.74;100.00
4392;BME280;2210;51.938;8.488;2023-03-19T21:29:07;100660.91;;;10.74;100.00
4392;BME280;2210;51.938;8.488;2023-03-19T21:33:38;100655.84;;;10.71;100.00
4392;BME280;2210;51.938;8.488;2023-03-19T21:37:41;100654.63;;;10.67;100.00
4392;BME280;2210;51.938;8.488;2023-03-19T21:41:42;100663.88;;;10.73;100.00
4392;BME280;2210;51.938;8.488;2023-03-19T21:45:43;100663.28;;;10.71;100.00
4392;BME280;2210;51.938;8.488;2023-03-19T21:49:45;100665.06;;;10.65;100.00
4392;BME280;2210;51.938;8.488;2023-03-19T21:53:50;100659.66;;;10.58;100.00
4392;BME280;2210;51.938;8.488;2023-03-19T21:57:53;100677.09;;;10.52;100.00
4392;BME280;2210;51.938;8.488;2023-03-19T22:06:22;100678.88;;;10.28;100.00
4392;BME280;2210;51.938;8.488;2023-03-19T22:10:26;100675.13;;;10.22;100.00
4392;BME280;2210;51.938;8.488;2023-03-19T22:14:27;100680.56;;;10.10;100.00
4392;BME280;2210;51.938;8.488;2023-03-19T22:18:29;100687.78;;;10.11;100.00
4392;BME280;2210;51.938;8.488;2023-03-19T22:22:29;100685.09;;;10.05;100.00
4392;BME280;2210;51.938;8.488;2023-03-19T22:26:40;100686.63;;;10.01;100.00
4392;BME280;2210;51.938;8.488;2023-03-19T22:30:41;100685.41;;;9.96;100.00
4392;BME280;2210;51.938;8.488;2023-03-19T22:34:41;100686.47;;;9.95;100.00
4392;BME280;2210;51.938;8.488;2023-03-19T22:38:42;100686.78;;;9.87;100.00
4392;BME280;2210;51.938;8.488;2023-03-19T22:42:47;100696.34;;;9.85;100.00
4392;BME280;2210;51.938;8.488;2023-03-19T22:46:47;100697.50;;;9.77;100.00
4392;BME280;2210;51.938;8.488;2023-03-19T22:50:51;100690.84;;;9.66;100.00
4392;BME280;2210;51.938;8.488;2023-03-19T22:54:51;100688.38;;;9.58;100.00
4392;BME280;2210;51.938;8.488;2023-03-19T22:58:52;100685.84;;;9.56;100.00
4392;BME280;2210;51.938;8.488;2023-03-19T23:02:56;100686.34;;;9.47;100.00
4392;BME280;2210;51.938;8.488;2023-03-19T23:06:58;100697.81;;;9.43;100.00
4392;BME280;2210;51.938;8.488;2023-03-19T23:10:59;100697.41;;;9.40;100.00
4392;BME280;2210;51.938;8.488;2023-03-19T23:15:00;100704.34;;;9.24;100.00
4392;BME280;2210;51.938;8.488;2023-03-19T23:19:00;100705.22;;;9.18;100.00
4392;BME280;2210;51.938;8.488;2023-03-19T23:23:01;100711.22;;;9.08;100.00
4392;BME280;2210;51.938;8.488;2023-03-19T23:27:02;100723.06;;;9.08;100.00
4392;BME280;2210;51.938;8.488;2023-03-19T23:31:02;100722.66;;;9.11;100.00
4392;BME280;2210;51.938;8.488;2023-03-19T23:35:14;100730.22;;;9.16;100.00
4392;BME280;2210;51.938;8.488;2023-03-19T23:39:14;100739.72;;;9.20;100.00
4392;BME280;2210;51.938;8.488;2023-03-19T23:43:18;100739.94;;;9.19;100.00
4392;BME280;2210;51.938;8.488;2023-03-19T23:47:22;100747.88;;;9.34;100.00
4392;BME280;2210;51.938;8.488;2023-03-19T23:51:22;100754.19;;;9.34;100.00
4392;BME280;2210;51.938;8.488;2023-03-19T23:55:22;100748.69;;;9.34;100.00
4392;BME280;2210;51.938;8.488;2023-03-19T23:59:23;100739.94;;;9.19;100.00
